Cairo, Egypt
Current Conditions -  °F | °C
As of 2:30 PM on Sunday 23 Nov 2014 (Local Time) from HECA Reporting Station
Scattered Clouds Scattered Clouds  
Wind Chill: 68°   Ceiling: Unl
Heat Index: 68°   Visibility: 6mi
Dew Point: 46°   Wind: 9mph
Humidity: 46%   Direction: 250°WSW
Pressure: 30"   Gusts: NA
Location:  30.06°N, 31.25°E
Report Text: HECA 231230Z 25008KT 9999 SCT025 SCT070 20/08 Q1016 NOSIG
Loading
Personal Weather Stations






























Interactive Weather Map New forecast layout! Learn more

10-Day Weather Forecast

Advertisements
Track Severe Weather on mobile